Austin, Texas
Traffic Map
Current Weather Conditions
Austin, Texas
Few Clouds
Few Clouds
71°
Feels Like: 71°
Wind Chill: 71° Ceiling: Unl
Heat Index: 71° Visibility: 10mi
Dew Point: 53° Wind: 8mph
Humidity: 53% Direction: 170° (S)
Pressure: 30.09in Gusts: 0mph
Raw Report DataKATT 171851Z AUTO 17007KT 10SM FEW040 22/12 A3009 RMK AO2 SLP185 T02170117 $
Traffic Incident Summary
Active as of:
Severity:
Category:
InformationThere was an issue retrieving the traffic information for this location. Please try a different location or try again shortly.
Advertisements